NEW EXCHEQUER-LK MCCLURE (EXC)

Elevation: 879' · MERCED R basin · Operator: Merced Irrigation District

Query executed Saturday at 01:28:19  

Provisional data, subject to change.
Select a sensor type for a plot of data.


Hourly Data

Earlier

DATE / TIME
PDT
RES ELE
FEET
STORAGE
AF
RAINTIP
INCHES
TEMP
DEG F
BAT VOL
VOLTS
07/23/2021 14:00 726.36 336,941 0.00 98 12.7
07/23/2021 15:00 726.36 336,941 0.00 100 12.6
07/23/2021 16:00 726.36 336,941 0.00 -- 13.2
07/23/2021 17:00 726.35 336,910 0.00 -- 13.2
07/23/2021 18:00 726.28 336,694 0.00 -- 13.3
07/23/2021 19:00 726.20 336,448 0.00 99 13.5
07/23/2021 20:00 726.12 336,202 0.00 96 13.6
07/23/2021 21:00 726.05 335,987 0.00 93 13.5
07/23/2021 22:00 725.97 335,741 0.00 89 12.8
07/23/2021 23:00 725.90 335,526 0.00 85 12.8
07/24/2021 00:00 725.83 335,312 0.00 84 12.8
07/24/2021 01:00 725.76 335,097 0.00 81 12.8

Later | Latest


15 Minute Data

Earlier

DATE / TIME
PDT
RES ELE
FEET
STORAGE
AF
RAINTIP
INCHES
TEMP
DEG F
EVP PAN
INCHES
BAT VOL
VOLTS
07/23/2021 13:30 726.37 336,972 0.00 97 7.51 12.7
07/23/2021 13:45 726.37 336,972 0.00 98 7.50 12.7
07/23/2021 14:00 726.36 336,941 0.00 98 7.50 12.7
07/23/2021 14:15 726.37 336,972 0.00 99 7.49 12.7
07/23/2021 14:30 726.36 336,941 0.00 100 7.48 12.7
07/23/2021 14:45 726.36 336,941 0.00 100 7.48 12.6
07/23/2021 15:00 726.36 336,941 0.00 100 7.47 12.6
07/23/2021 15:15 726.37 336,972 0.00 100 7.46 12.6
07/23/2021 15:30 726.36 336,941 0.00 101 7.45 13.0
07/23/2021 15:45 726.36 336,941 0.00 101 7.45 13.2
07/23/2021 16:00 726.36 336,941 0.00 -- 7.44 13.2
07/23/2021 16:15 726.36 336,941 0.00 -- 7.44 13.2
07/23/2021 16:30 726.35 336,910 0.00 101 7.43 13.2
07/23/2021 16:45 726.36 336,941 0.00 101 7.43 13.2
07/23/2021 17:00 726.35 336,910 0.00 -- 7.44 13.2
07/23/2021 17:15 726.33 336,848 0.00 -- 7.41 13.2
07/23/2021 17:30 726.32 336,818 0.00 101 7.40 13.2
07/23/2021 17:45 726.31 336,787 0.00 101 7.39 13.2
07/23/2021 18:00 726.28 336,694 0.00 -- 7.38 13.3
07/23/2021 18:15 726.26 336,633 0.00 -- 7.38 13.7
07/23/2021 18:30 726.25 336,602 0.00 100 7.37 13.6
07/23/2021 18:45 726.24 336,571 0.00 99 7.35 13.6
07/23/2021 19:00 726.20 336,448 0.00 99 7.34 13.5
07/23/2021 19:15 726.19 336,417 0.00 98 7.34 13.6
07/23/2021 19:30 726.18 336,387 0.00 98 7.33 13.5
07/23/2021 19:45 726.15 336,295 0.00 97 7.33 13.6
07/23/2021 20:00 726.12 336,202 0.00 96 7.32 13.6
07/23/2021 20:15 726.12 336,202 0.00 95 7.30 13.5
07/23/2021 20:30 726.09 336,110 0.00 94 7.29 13.5
07/23/2021 20:45 726.06 336,018 0.00 93 7.29 13.6
07/23/2021 21:00 726.05 335,987 0.00 93 7.29 13.5
07/23/2021 21:15 726.04 335,956 0.00 92 7.29 13.5
07/23/2021 21:30 726.01 335,864 0.00 92 7.27 12.9
07/23/2021 21:45 725.99 335,802 0.00 88 7.27 12.8
07/23/2021 22:00 725.97 335,741 0.00 89 7.27 12.8
07/23/2021 22:15 725.96 335,710 0.00 88 7.26 12.8
07/23/2021 22:30 725.93 335,618 0.00 87 7.26 12.8
07/23/2021 22:45 725.92 335,587 0.00 87 7.25 12.8
07/23/2021 23:00 725.90 335,526 0.00 85 7.25 12.8
07/23/2021 23:15 725.88 335,465 0.00 86 7.24 12.8
07/23/2021 23:30 725.85 335,373 0.00 83 7.25 12.8
07/23/2021 23:45 725.84 335,342 0.00 83 7.24 12.8
07/24/2021 00:00 725.83 335,312 0.00 84 7.24 12.8
07/24/2021 00:15 725.80 335,220 0.00 82 7.24 12.8
07/24/2021 00:30 725.79 335,189 0.00 82 7.23 12.8
07/24/2021 00:45 725.78 335,159 0.00 81 7.23 12.8
07/24/2021 01:00 725.76 335,097 0.00 81 7.25 12.8
07/24/2021 01:15 725.75 335,067 0.00 80 7.66 12.8

Later | Latest

BRT and ART signify discharge at stage below or above available rating table
Warning! This data is preliminary and subject to revision.

Show EXC Map | 24 Hours EXC Data | Plot all EXC Sensors | Daily EXC Data | EXC Info